createdAt,value
2023-05-05T00:02:16.143Z,2.60
2023-05-05T00:04:43.224Z,2.58
2023-05-05T00:07:10.865Z,2.20
2023-05-05T00:09:37.632Z,2.42
2023-05-05T00:12:04.456Z,2.70
2023-05-05T00:14:31.295Z,2.83
2023-05-05T00:16:58.369Z,3.05
2023-05-05T00:19:27.317Z,2.95
2023-05-05T00:21:53.825Z,2.65
2023-05-05T00:24:20.462Z,2.90
2023-05-05T00:26:47.207Z,3.40
2023-05-05T00:29:13.755Z,2.97
2023-05-05T00:31:40.694Z,2.70
2023-05-05T00:34:07.528Z,2.90
2023-05-05T00:36:34.545Z,3.15
2023-05-05T00:39:01.200Z,2.90
2023-05-05T00:41:27.761Z,2.85
2023-05-05T00:43:55.538Z,2.90
2023-05-05T00:46:31.131Z,2.90
2023-05-05T00:48:59.272Z,2.88
2023-05-05T00:51:31.236Z,2.50
2023-05-05T00:53:57.872Z,3.20
2023-05-05T00:56:27.226Z,3.10
2023-05-05T00:58:53.935Z,2.80
2023-05-05T01:01:21.696Z,2.63
2023-05-05T01:03:48.431Z,2.72
2023-05-05T01:06:43.590Z,2.80
2023-05-05T01:09:35.055Z,2.60
2023-05-05T01:12:25.956Z,2.58
2023-05-05T01:15:14.830Z,2.58
2023-05-05T01:17:56.391Z,2.78
2023-05-05T01:20:37.684Z,2.80
2023-05-05T01:23:07.146Z,2.33
2023-05-05T01:26:09.410Z,2.70
2023-05-05T01:29:06.656Z,3.13
2023-05-05T01:31:52.838Z,2.80
2023-05-05T01:34:28.786Z,3.00
2023-05-05T01:37:08.921Z,2.55
2023-05-05T01:39:37.310Z,3.13
2023-05-05T01:42:10.516Z,2.80
2023-05-05T01:44:37.869Z,2.83
2023-05-05T01:47:08.695Z,2.63
2023-05-05T01:49:38.946Z,2.55
2023-05-05T01:52:07.009Z,2.42
2023-05-05T01:54:35.030Z,3.80
2023-05-05T01:57:04.896Z,2.60
2023-05-05T01:59:32.690Z,2.90
2023-05-05T02:02:02.359Z,2.85
2023-05-05T02:04:33.409Z,3.15
2023-05-05T02:07:02.338Z,2.70
2023-05-05T02:09:30.652Z,2.58
2023-05-05T02:11:58.954Z,3.15
2023-05-05T02:14:29.580Z,2.55
2023-05-05T02:16:57.939Z,2.83
2023-05-05T02:19:29.923Z,2.78
2023-05-05T02:21:57.592Z,2.70
2023-05-05T02:24:27.413Z,2.95
2023-05-05T02:26:56.550Z,3.15
2023-05-05T02:29:35.553Z,2.72
2023-05-05T02:32:06.051Z,2.78
2023-05-05T02:34:39.920Z,3.05
2023-05-05T02:37:11.539Z,3.17
2023-05-05T02:42:19.446Z,2.83
2023-05-05T02:44:46.419Z,2.83
2023-05-05T02:47:13.298Z,2.60
2023-05-05T02:49:39.782Z,2.75
2023-05-05T02:52:07.908Z,3.05
2023-05-05T02:54:39.516Z,2.95
2023-05-05T02:59:42.357Z,2.80
2023-05-05T03:02:27.428Z,3.00
2023-05-05T03:05:04.404Z,2.67
2023-05-05T03:07:37.643Z,3.00
2023-05-05T03:10:09.448Z,3.00
2023-05-05T03:12:46.212Z,2.25
2023-05-05T03:15:15.269Z,2.60
2023-05-05T03:17:44.011Z,3.03
2023-05-05T03:20:12.678Z,3.00
2023-05-05T03:22:39.539Z,3.00
2023-05-05T03:25:06.625Z,2.90
2023-05-05T03:27:34.493Z,2.75
2023-05-05T03:30:01.534Z,3.22
2023-05-05T03:32:29.049Z,2.85
2023-05-05T03:34:56.007Z,3.00
2023-05-05T03:37:22.956Z,2.97
2023-05-05T03:39:49.663Z,3.55
2023-05-05T03:42:17.157Z,2.70
2023-05-05T03:44:44.100Z,2.75
2023-05-05T03:47:11.895Z,2.55
2023-05-05T03:49:38.466Z,3.65
2023-05-05T03:52:06.530Z,2.85
2023-05-05T03:54:38.965Z,2.50
2023-05-05T03:57:05.542Z,2.90
2023-05-05T03:59:32.666Z,2.63
2023-05-05T04:01:59.247Z,2.78
2023-05-05T04:04:25.838Z,2.85
2023-05-05T04:06:52.769Z,3.03
2023-05-05T04:09:19.357Z,2.60
2023-05-05T04:11:46.087Z,2.40
2023-05-05T04:14:13.079Z,2.55
2023-05-05T04:16:40.806Z,2.50
2023-05-05T04:19:07.517Z,2.67
2023-05-05T04:21:35.639Z,2.63
2023-05-05T04:24:02.116Z,2.42
2023-05-05T04:26:28.654Z,3.15
2023-05-05T04:28:55.752Z,2.67
2023-05-05T04:31:22.564Z,2.63
2023-05-05T04:33:49.079Z,3.05
2023-05-05T04:36:15.504Z,2.72
2023-05-05T04:38:42.532Z,2.50
2023-05-05T04:41:13.216Z,2.72
2023-05-05T04:43:41.594Z,3.15
2023-05-05T04:46:08.140Z,3.25
2023-05-05T04:48:37.058Z,2.72
2023-05-05T04:51:05.228Z,3.25
2023-05-05T04:53:33.017Z,2.92
2023-05-05T04:56:04.433Z,2.75
2023-05-05T04:58:32.431Z,2.83
2023-05-05T05:01:02.723Z,2.72
2023-05-05T05:03:31.989Z,2.90
2023-05-05T05:05:59.878Z,2.72
2023-05-05T05:08:26.427Z,3.13
2023-05-05T05:10:53.174Z,3.30
2023-05-05T05:13:19.876Z,3.30
2023-05-05T05:15:46.388Z,3.22
2023-05-05T05:18:13.232Z,2.80
2023-05-05T05:20:40.968Z,3.05
2023-05-05T05:23:11.552Z,3.30
2023-05-05T05:25:38.019Z,3.35
2023-05-05T05:28:09.580Z,3.35
2023-05-05T05:30:39.819Z,3.63
2023-05-05T05:33:06.713Z,3.05
2023-05-05T05:35:33.280Z,3.50
2023-05-05T05:37:59.859Z,3.38
2023-05-05T05:40:27.641Z,3.13
2023-05-05T05:42:55.621Z,3.28
2023-05-05T05:45:22.716Z,3.58
2023-05-05T05:47:49.653Z,3.30
2023-05-05T05:50:16.213Z,3.15
2023-05-05T05:52:45.928Z,3.55
2023-05-05T05:55:12.812Z,3.50
2023-05-05T05:57:39.309Z,3.47
2023-05-05T06:00:06.876Z,3.70
2023-05-05T06:02:35.095Z,3.22
2023-05-05T06:05:01.684Z,3.28
2023-05-05T06:07:29.012Z,3.50
2023-05-05T06:09:55.430Z,3.22
2023-05-05T06:12:21.959Z,3.28
2023-05-05T06:14:48.499Z,3.63
2023-05-05T06:17:15.088Z,3.92
2023-05-05T06:19:43.841Z,3.63
2023-05-05T06:22:10.612Z,3.90
2023-05-05T06:24:37.563Z,3.22
2023-05-05T06:27:04.362Z,3.15
2023-05-05T06:29:33.773Z,3.50
2023-05-05T06:32:01.729Z,3.70
2023-05-05T06:34:28.552Z,3.13
2023-05-05T06:36:55.153Z,3.67
2023-05-05T06:39:23.299Z,3.78
2023-05-05T06:41:51.125Z,3.58
2023-05-05T06:44:21.356Z,4.15
2023-05-05T06:46:48.228Z,4.25
2023-05-05T06:49:22.232Z,3.50
2023-05-05T06:51:49.054Z,3.70
2023-05-05T06:54:16.866Z,4.22
2023-05-05T06:56:44.420Z,3.58
2023-05-05T06:59:14.128Z,4.00
2023-05-05T07:01:41.801Z,3.88
2023-05-05T07:04:08.346Z,3.60
2023-05-05T07:06:35.420Z,3.70
2023-05-05T07:09:04.781Z,3.97
2023-05-05T07:11:37.899Z,4.10
2023-05-05T07:14:05.479Z,3.50
2023-05-05T07:16:34.704Z,2.90
2023-05-05T07:19:05.512Z,3.50
2023-05-05T07:24:05.607Z,3.72
2023-05-05T07:26:32.800Z,3.78
2023-05-05T07:28:59.384Z,3.58
2023-05-05T07:31:26.530Z,3.60
2023-05-05T07:33:53.400Z,3.47
2023-05-05T07:36:21.251Z,3.70
2023-05-05T07:38:50.170Z,3.35
2023-05-05T07:41:21.990Z,4.10
2023-05-05T07:43:48.522Z,3.55
2023-05-05T07:46:16.206Z,3.90
2023-05-05T07:48:47.570Z,3.92
2023-05-05T07:51:14.581Z,3.72
2023-05-05T07:53:42.089Z,3.70
2023-05-05T07:56:10.276Z,3.80
2023-05-05T07:58:47.517Z,3.45
2023-05-05T08:01:14.118Z,3.58
2023-05-05T08:03:42.444Z,3.80
2023-05-05T08:06:10.303Z,3.65
2023-05-05T08:08:37.852Z,3.55
2023-05-05T08:11:07.439Z,3.92
2023-05-05T08:13:34.823Z,3.42
2023-05-05T08:16:01.712Z,3.70
2023-05-05T08:18:28.529Z,3.72
2023-05-05T08:20:56.687Z,3.42
2023-05-05T08:23:23.520Z,3.65
2023-05-05T08:25:50.049Z,3.40
2023-05-05T08:28:26.658Z,3.90
2023-05-05T08:33:30.114Z,3.47
2023-05-05T08:35:56.849Z,3.70
2023-05-05T08:38:25.304Z,3.60
2023-05-05T08:40:53.432Z,4.05
2023-05-05T08:43:24.045Z,3.90
2023-05-05T08:45:56.246Z,4.72
2023-05-05T08:48:30.559Z,4.05
2023-05-05T08:51:02.613Z,4.10
2023-05-05T08:53:58.733Z,4.30
2023-05-05T08:56:32.602Z,3.88
2023-05-05T08:59:01.277Z,3.80
2023-05-05T09:01:28.526Z,3.95
2023-05-05T09:03:55.700Z,3.70
2023-05-05T09:06:25.805Z,3.90
2023-05-05T09:08:53.626Z,3.85
2023-05-05T09:11:20.109Z,4.00
2023-05-05T09:13:47.633Z,3.58
2023-05-05T09:16:14.207Z,3.60
2023-05-05T09:18:42.812Z,3.95
2023-05-05T09:21:28.223Z,4.10
2023-05-05T09:24:12.655Z,3.72
2023-05-05T09:26:42.803Z,4.88
2023-05-05T09:29:10.467Z,3.65
2023-05-05T09:31:37.743Z,3.92
2023-05-05T09:34:15.568Z,3.25
2023-05-05T09:36:49.894Z,3.67
2023-05-05T09:39:20.570Z,3.60
2023-05-05T09:41:47.186Z,4.03
2023-05-05T09:44:16.160Z,3.72
2023-05-05T09:46:51.201Z,3.75
2023-05-05T09:49:25.637Z,3.75
2023-05-05T09:51:53.033Z,3.85
2023-05-05T09:54:23.518Z,4.15
2023-05-05T09:56:52.594Z,3.63
2023-05-05T09:59:21.682Z,3.83
2023-05-05T10:01:49.265Z,3.60
2023-05-05T10:04:30.198Z,3.90
2023-05-05T10:06:58.297Z,3.75
2023-05-05T10:09:27.521Z,3.53
2023-05-05T10:11:58.192Z,3.88
2023-05-05T10:16:53.956Z,3.75
2023-05-05T10:19:22.223Z,3.72
2023-05-05T10:21:54.295Z,4.55
2023-05-05T10:24:34.236Z,3.72
2023-05-05T10:27:07.811Z,3.85
2023-05-05T10:29:45.995Z,3.30
2023-05-05T10:34:59.572Z,3.50
2023-05-05T10:37:26.330Z,3.60
2023-05-05T10:39:54.827Z,3.80
2023-05-05T10:42:25.385Z,3.90
2023-05-05T10:44:52.275Z,3.03
2023-05-05T10:47:20.416Z,3.17
2023-05-05T10:50:17.980Z,3.13
2023-05-05T10:52:59.967Z,3.25
2023-05-05T10:56:01.183Z,2.90
2023-05-05T10:58:58.299Z,3.30
2023-05-05T11:01:35.326Z,3.33
2023-05-05T11:04:22.780Z,2.78
2023-05-05T11:07:10.485Z,2.78
2023-05-05T11:09:55.785Z,2.70
2023-05-05T11:12:22.605Z,2.70
2023-05-05T11:15:24.658Z,2.72
2023-05-05T11:17:52.333Z,3.08
2023-05-05T11:20:39.851Z,2.90
2023-05-05T11:23:06.620Z,2.80
2023-05-05T11:25:45.337Z,2.90
2023-05-05T11:28:14.089Z,2.55
2023-05-05T11:30:56.052Z,2.80
2023-05-05T11:33:30.956Z,2.70
2023-05-05T11:36:06.781Z,2.63
2023-05-05T11:38:53.089Z,2.95
2023-05-05T11:41:32.667Z,2.50
2023-05-05T11:44:12.179Z,3.15
2023-05-05T11:47:04.547Z,3.42
2023-05-05T11:49:39.558Z,2.95
2023-05-05T11:52:08.417Z,2.75
2023-05-05T11:54:36.611Z,2.97
2023-05-05T11:57:05.712Z,2.65
2023-05-05T11:59:34.429Z,2.90
2023-05-05T12:02:01.243Z,2.65
2023-05-05T12:04:28.062Z,2.60
2023-05-05T12:06:55.506Z,2.75
2023-05-05T12:09:23.220Z,2.80
2023-05-05T12:11:57.309Z,2.65
2023-05-05T12:14:25.674Z,2.88
2023-05-05T12:16:56.132Z,3.13
2023-05-05T12:19:30.616Z,2.78
2023-05-05T12:21:58.491Z,2.60
2023-05-05T12:24:29.439Z,2.47
2023-05-05T12:26:56.197Z,2.40
2023-05-05T12:29:28.627Z,2.50
2023-05-05T12:31:55.270Z,2.70
2023-05-05T12:34:23.908Z,3.08
2023-05-05T12:36:50.817Z,2.90
2023-05-05T12:39:17.303Z,2.58
2023-05-05T12:41:45.517Z,2.60
2023-05-05T12:44:12.102Z,2.60
2023-05-05T12:46:46.036Z,2.80
2023-05-05T12:49:12.696Z,2.97
2023-05-05T12:51:53.469Z,2.60
2023-05-05T12:54:23.911Z,2.70
2023-05-05T12:56:50.500Z,2.80
2023-05-05T12:59:23.009Z,2.90
2023-05-05T13:01:54.572Z,2.92
2023-05-05T13:04:26.197Z,2.35
2023-05-05T13:07:12.437Z,2.38
2023-05-05T13:09:39.331Z,2.63
2023-05-05T13:12:08.357Z,2.53
2023-05-05T13:14:35.216Z,2.35
2023-05-05T13:17:01.746Z,2.10
2023-05-05T13:19:28.792Z,2.78
2023-05-05T13:21:56.678Z,2.70
2023-05-05T13:24:42.280Z,2.50
2023-05-05T13:27:15.757Z,2.40
2023-05-05T13:29:42.727Z,2.63
2023-05-05T13:32:09.517Z,2.83
2023-05-05T13:34:36.036Z,2.60
2023-05-05T13:37:02.577Z,2.70
2023-05-05T13:39:29.189Z,2.30
2023-05-05T13:41:58.331Z,2.42
2023-05-05T13:44:25.088Z,2.42
2023-05-05T13:46:52.491Z,2.50
2023-05-05T13:49:20.096Z,2.55
2023-05-05T13:51:47.260Z,2.33
2023-05-05T13:54:14.096Z,2.70
2023-05-05T13:56:41.021Z,2.97
2023-05-05T13:59:07.655Z,2.42
2023-05-05T14:01:34.964Z,2.65
2023-05-05T14:04:04.549Z,2.75
2023-05-05T14:06:32.704Z,4.55
2023-05-05T14:08:59.713Z,2.20
2023-05-05T14:11:26.390Z,2.22
2023-05-05T14:13:53.569Z,1.73
2023-05-05T14:16:21.474Z,1.90
2023-05-05T14:18:50.220Z,1.80
2023-05-05T14:21:17.249Z,1.55
2023-05-05T14:23:43.852Z,1.70
2023-05-05T14:26:10.338Z,3.65
2023-05-05T14:28:36.819Z,1.58
2023-05-05T14:31:03.314Z,1.60
2023-05-05T14:33:31.437Z,1.88
2023-05-05T14:35:57.944Z,1.67
2023-05-05T14:38:24.914Z,1.95
2023-05-05T14:40:51.521Z,1.55
2023-05-05T14:43:18.419Z,1.80
2023-05-05T14:45:47.395Z,2.80
2023-05-05T14:48:14.334Z,2.50
2023-05-05T14:50:43.709Z,3.00
2023-05-05T14:53:10.522Z,2.38
2023-05-05T14:55:37.236Z,2.28
2023-05-05T14:58:05.150Z,2.53
2023-05-05T15:00:31.955Z,2.92
2023-05-05T15:02:58.758Z,2.58
2023-05-05T15:05:25.769Z,2.70
2023-05-05T15:07:53.924Z,2.90
2023-05-05T15:10:21.944Z,2.78
2023-05-05T15:12:49.093Z,2.60
2023-05-05T15:15:15.984Z,2.78
2023-05-05T15:17:43.244Z,2.90
2023-05-05T15:20:10.148Z,2.92
2023-05-05T15:22:36.689Z,2.72
2023-05-05T15:25:03.300Z,2.50
2023-05-05T15:27:31.627Z,2.40
2023-05-05T15:29:58.619Z,2.47
2023-05-05T15:32:25.222Z,2.65
2023-05-05T15:34:51.872Z,2.80
2023-05-05T15:37:20.491Z,2.70
2023-05-05T15:39:49.176Z,2.75
2023-05-05T15:42:15.715Z,3.30
2023-05-05T15:44:42.269Z,2.95
2023-05-05T15:47:12.064Z,2.83
2023-05-05T15:49:38.629Z,2.60
2023-05-05T15:52:07.566Z,2.50
2023-05-05T15:54:35.382Z,3.22
2023-05-05T15:57:03.597Z,2.78
2023-05-05T15:59:30.129Z,2.92
2023-05-05T16:01:56.592Z,2.58
2023-05-05T16:04:24.473Z,3.20
2023-05-05T16:06:50.983Z,2.90
2023-05-05T16:09:17.762Z,2.97
2023-05-05T16:11:47.780Z,3.17
2023-05-05T16:14:14.305Z,3.22
2023-05-05T16:16:41.047Z,2.75
2023-05-05T16:19:11.059Z,2.88
2023-05-05T16:21:38.034Z,3.15
2023-05-05T16:24:05.400Z,2.72
2023-05-05T16:26:34.638Z,2.80
2023-05-05T16:29:01.656Z,2.83
2023-05-05T16:31:28.529Z,2.42
2023-05-05T16:33:55.000Z,2.80
2023-05-05T16:36:22.220Z,2.78
2023-05-05T16:38:50.040Z,2.78
2023-05-05T16:41:16.896Z,2.90
2023-05-05T16:43:44.853Z,3.03
2023-05-05T16:46:11.897Z,3.33
2023-05-05T16:48:38.685Z,3.20
2023-05-05T16:51:05.683Z,3.35
2023-05-05T16:53:33.923Z,2.70
2023-05-05T16:56:00.491Z,2.80
2023-05-05T16:58:27.252Z,2.92
2023-05-05T17:00:54.935Z,2.72
2023-05-05T17:03:23.285Z,3.38
2023-05-05T17:05:53.063Z,2.80
2023-05-05T17:08:20.102Z,3.08
2023-05-05T17:10:46.805Z,3.05
2023-05-05T17:13:14.864Z,3.15
2023-05-05T17:15:42.070Z,3.20
2023-05-05T17:18:09.168Z,2.90
2023-05-05T17:20:36.551Z,3.00
2023-05-05T17:23:03.810Z,2.92
2023-05-05T17:25:31.171Z,3.15
2023-05-05T17:27:57.950Z,2.92
2023-05-05T17:30:24.498Z,2.42
2023-05-05T17:32:51.225Z,2.90
2023-05-05T17:35:18.822Z,3.28
2023-05-05T17:37:45.566Z,3.10
2023-05-05T17:40:13.199Z,4.00
2023-05-05T17:42:42.669Z,3.08
2023-05-05T17:45:10.018Z,2.55
2023-05-05T17:47:37.351Z,2.75
2023-05-05T17:50:06.732Z,2.90
2023-05-05T17:52:33.286Z,2.70
2023-05-05T17:54:59.902Z,3.30
2023-05-05T17:57:26.943Z,3.10
2023-05-05T17:59:53.781Z,3.15
2023-05-05T18:02:22.818Z,3.63
2023-05-05T18:04:49.962Z,3.35
2023-05-05T18:07:16.730Z,3.35
2023-05-05T18:09:46.768Z,3.00
2023-05-05T18:12:13.382Z,3.10
2023-05-05T18:14:41.490Z,3.47
2023-05-05T18:17:08.326Z,4.22
2023-05-05T18:19:36.108Z,3.38
2023-05-05T18:22:02.653Z,3.45
2023-05-05T18:24:30.802Z,4.13
2023-05-05T18:26:58.389Z,3.65
2023-05-05T18:29:25.438Z,3.10
2023-05-05T18:31:54.736Z,3.55
2023-05-05T18:34:21.459Z,3.92
2023-05-05T18:36:48.244Z,3.75
2023-05-05T18:39:14.767Z,3.70
2023-05-05T18:41:41.303Z,3.85
2023-05-05T18:44:08.332Z,3.50
2023-05-05T18:46:35.005Z,3.97
2023-05-05T18:49:01.867Z,3.88
2023-05-05T18:51:28.728Z,4.45
2023-05-05T18:53:55.362Z,4.18
2023-05-05T18:56:21.899Z,4.00
2023-05-05T18:58:51.060Z,3.85
2023-05-05T19:01:25.063Z,3.95
2023-05-05T19:03:51.586Z,4.18
2023-05-05T19:06:20.551Z,4.03
2023-05-05T19:08:47.824Z,4.20
2023-05-05T19:11:15.223Z,3.92
2023-05-05T19:13:43.363Z,4.20
2023-05-05T19:16:11.047Z,4.32
2023-05-05T19:18:37.877Z,4.20
2023-05-05T19:21:04.506Z,4.72
2023-05-05T19:23:32.074Z,4.20
2023-05-05T19:25:58.598Z,3.97
2023-05-05T19:28:26.227Z,5.68
2023-05-05T19:30:52.785Z,3.75
2023-05-05T19:33:19.566Z,5.00
2023-05-05T19:35:47.658Z,3.75
2023-05-05T19:38:14.426Z,4.07
2023-05-05T19:40:41.536Z,4.20
2023-05-05T19:43:08.343Z,4.00
2023-05-05T19:45:37.815Z,3.70
2023-05-05T19:48:11.650Z,4.43
2023-05-05T19:50:39.002Z,3.70
2023-05-05T19:53:05.517Z,4.15
2023-05-05T19:55:33.480Z,3.40
2023-05-05T19:58:00.053Z,3.85
2023-05-05T20:00:26.672Z,3.97
2023-05-05T20:02:53.344Z,3.25
2023-05-05T20:05:20.540Z,4.05
2023-05-05T20:07:50.134Z,3.55
2023-05-05T20:10:17.709Z,3.35
2023-05-05T20:12:48.567Z,3.70
2023-05-05T20:15:18.898Z,3.58
2023-05-05T20:17:47.113Z,3.70
2023-05-05T20:20:20.272Z,3.80
2023-05-05T20:22:48.512Z,3.97
2023-05-05T20:25:16.345Z,3.58
2023-05-05T20:27:44.419Z,3.55
2023-05-05T20:30:12.581Z,3.58
2023-05-05T20:32:42.625Z,3.80
2023-05-05T20:35:12.849Z,3.90
2023-05-05T20:37:39.341Z,3.45
2023-05-05T20:40:06.817Z,4.40
2023-05-05T20:42:59.151Z,4.25
2023-05-05T20:45:25.843Z,4.03
2023-05-05T20:47:53.666Z,3.42
2023-05-05T20:50:26.474Z,4.47
2023-05-05T20:52:56.655Z,3.55
2023-05-05T20:55:23.815Z,3.88
2023-05-05T20:57:50.274Z,3.83
2023-05-05T21:00:16.990Z,3.53
2023-05-05T21:02:43.676Z,4.07
2023-05-05T21:05:10.314Z,3.92
2023-05-05T21:07:36.898Z,3.90
2023-05-05T21:10:04.553Z,3.70
2023-05-05T21:12:35.691Z,3.72
2023-05-05T21:15:03.937Z,4.07
2023-05-05T21:17:30.507Z,4.32
2023-05-05T21:20:00.798Z,4.10
2023-05-05T21:22:27.471Z,3.58
2023-05-05T21:24:54.806Z,4.13
2023-05-05T21:27:22.610Z,4.10
2023-05-05T21:29:52.993Z,3.33
2023-05-05T21:32:19.601Z,3.70
2023-05-05T21:34:46.478Z,3.60
2023-05-05T21:37:19.207Z,3.97
2023-05-05T21:39:51.988Z,3.80
2023-05-05T21:42:20.160Z,3.35
2023-05-05T21:44:46.807Z,3.90
2023-05-05T21:47:14.815Z,3.20
2023-05-05T21:49:45.504Z,3.88
2023-05-05T21:52:12.032Z,3.92
2023-05-05T21:54:41.063Z,3.83
2023-05-05T21:57:07.728Z,3.42
2023-05-05T21:59:36.547Z,3.63
2023-05-05T22:02:03.162Z,3.65
2023-05-05T22:04:29.764Z,3.75
2023-05-05T22:06:56.759Z,3.70
2023-05-05T22:09:23.615Z,3.92
2023-05-05T22:11:51.765Z,3.97
2023-05-05T22:14:18.240Z,3.85
2023-05-05T22:16:44.874Z,4.10
2023-05-05T22:19:12.123Z,3.38
2023-05-05T22:21:38.879Z,3.70
2023-05-05T22:24:07.679Z,4.03
2023-05-05T22:26:34.299Z,4.00
2023-05-05T22:29:01.271Z,3.75
2023-05-05T22:31:30.352Z,3.78
2023-05-05T22:33:57.239Z,3.90
2023-05-05T22:36:23.876Z,4.32
2023-05-05T22:38:50.424Z,4.38
2023-05-05T22:41:17.893Z,4.05
2023-05-05T22:43:44.676Z,4.20
2023-05-05T22:46:12.833Z,4.03
2023-05-05T22:48:40.592Z,4.15
2023-05-05T22:51:10.456Z,3.83
2023-05-05T22:53:37.946Z,4.20
2023-05-05T22:56:05.030Z,3.88
2023-05-05T22:58:34.954Z,4.18
2023-05-05T23:01:02.194Z,4.13
2023-05-05T23:03:38.111Z,4.18
2023-05-05T23:06:04.567Z,4.10
2023-05-05T23:08:31.562Z,4.07
2023-05-05T23:10:58.164Z,4.30
2023-05-05T23:13:27.032Z,4.15
2023-05-05T23:15:53.744Z,4.53
2023-05-05T23:18:21.649Z,4.75
2023-05-05T23:20:50.850Z,4.80
2023-05-05T23:23:19.647Z,4.88
2023-05-05T23:25:46.165Z,5.45
2023-05-05T23:28:15.521Z,4.50
2023-05-05T23:30:42.544Z,4.95
2023-05-05T23:33:12.075Z,4.70
2023-05-05T23:35:43.466Z,4.30
2023-05-05T23:40:36.602Z,4.15
2023-05-05T23:43:03.111Z,4.22
2023-05-05T23:45:33.225Z,4.60
2023-05-05T23:48:00.615Z,5.38
2023-05-05T23:50:28.101Z,4.57
2023-05-05T23:52:54.912Z,5.13
2023-05-05T23:55:22.476Z,4.88
2023-05-05T23:57:53.303Z,5.32
